Time;durP1;ratioP1;P1;durP2;ratioP2;P2;SDS_P1;SDS_P2;PMS_P1;PMS_P2;Temp;Humidity;BMP_temperature;BMP_pressure;BME280_temperature;BME280_humidity;BME280_pressure;Samples;Min_cycle;Max_cycle;Signal;HPM_P1;HPM_P2
2022/08/11 00:00:44;;;;;;;0.00;0.00;;;18.80;81.20;;;;;;5011264;28;20060;-72
2022/08/11 00:03:14;;;;;;;0.00;0.00;;;18.80;81.10;;;;;;5010090;28;20686;-71
2022/08/11 00:05:49;;;;;;;0.00;0.00;;;18.70;81.00;;;;;;5020749;28;20045;-72
2022/08/11 00:08:27;;;;;;;0.00;0.00;;;18.80;81.60;;;;;;5029357;28;20041;-72
2022/08/11 00:11:03;;;;;;;0.00;0.00;;;18.70;81.10;;;;;;5027412;28;20053;-72
2022/08/11 00:13:41;;;;;;;1.02;0.30;;;18.60;81.00;;;;;;5029426;28;20096;-72
2022/08/11 00:16:22;;;;;;;0.00;0.00;;;18.60;80.90;;;;;;5027847;28;20128;-72
2022/08/11 00:18:51;;;;;;;0.00;0.00;;;18.60;81.10;;;;;;5029209;28;20041;-72
2022/08/11 00:21:19;;;;;;;0.00;0.00;;;18.60;81.30;;;;;;5014094;28;20069;-72
2022/08/11 00:23:52;;;;;;;0.00;0.00;;;18.60;81.30;;;;;;4992073;28;20050;-72
2022/08/11 00:26:18;;;;;;;0.00;0.00;;;18.60;81.30;;;;;;5022901;28;20049;-72
2022/08/11 00:28:44;;;;;;;0.00;0.00;;;18.50;81.20;;;;;;5011792;28;20063;-72
2022/08/11 00:31:30;;;;;;;0.00;0.00;;;18.50;81.30;;;;;;5024584;28;20549;-72
2022/08/11 00:33:58;;;;;;;0.00;0.00;;;18.50;81.70;;;;;;5029366;28;20128;-72
2022/08/11 00:36:46;;;;;;;0.00;0.00;;;18.50;82.00;;;;;;5025216;28;20037;-72
2022/08/11 00:39:13;;;;;;;0.10;0.10;;;18.50;82.00;;;;;;5029073;28;20084;-73
2022/08/11 00:42:01;;;;;;;0.00;0.00;;;18.60;81.90;;;;;;5028695;28;20766;-72
2022/08/11 00:44:36;;;;;;;0.00;0.00;;;18.50;81.80;;;;;;5029620;28;20132;-72
2022/08/11 00:47:22;;;;;;;0.00;0.00;;;18.50;81.70;;;;;;5023954;28;20139;-72
2022/08/11 00:50:23;;;;;;;0.00;0.00;;;18.60;81.80;;;;;;5029077;28;20041;-72
2022/08/11 00:53:11;;;;;;;0.10;0.10;;;18.50;81.70;;;;;;4998306;28;20060;-72
2022/08/11 00:55:55;;;;;;;0.00;0.00;;;18.50;81.80;;;;;;5028170;28;20029;-72
2022/08/11 00:58:39;;;;;;;0.00;0.00;;;18.50;81.90;;;;;;5011184;28;20046;-72
2022/08/11 01:01:14;;;;;;;0.10;0.10;;;18.50;81.60;;;;;;5035729;28;20154;-72
2022/08/11 01:04:06;;;;;;;0.00;0.00;;;18.60;81.50;;;;;;5029132;28;20183;-72
2022/08/11 01:06:54;;;;;;;;;;;18.50;81.50;;;;;;5037678;28;20080;-72
2022/08/11 01:09:26;;;;;;;0.00;0.00;;;18.50;81.50;;;;;;5039967;28;20385;-72
2022/08/11 01:12:19;;;;;;;0.00;0.00;;;18.50;81.90;;;;;;5032709;28;20092;-72
2022/08/11 01:15:10;;;;;;;0.00;0.00;;;18.50;81.60;;;;;;5028725;28;20554;-72
2022/08/11 01:18:14;;;;;;;0.00;0.00;;;18.50;81.60;;;;;;5046029;28;20084;-72
2022/08/11 01:20:58;;;;;;;0.00;0.00;;;18.50;81.90;;;;;;5020702;28;20045;-72
2022/08/11 01:24:09;;;;;;;0.00;0.00;;;18.50;82.10;;;;;;4999243;28;20053;-72
2022/08/11 01:27:00;;;;;;;0.00;0.00;;;18.40;81.90;;;;;;5022661;28;20520;-72
2022/08/11 01:29:46;;;;;;;0.00;0.00;;;18.40;81.80;;;;;;5044214;28;20045;-72
2022/08/11 01:32:50;;;;;;;0.00;0.00;;;18.40;82.00;;;;;;5044615;28;20099;-72
2022/08/11 01:35:21;;;;;;;0.05;0.05;;;18.40;81.90;;;;;;5051697;28;20079;-72
2022/08/11 01:38:24;;;;;;;0.00;0.00;;;18.40;82.00;;;;;;5035230;28;20129;-72
2022/08/11 01:41:11;;;;;;;0.00;0.00;;;18.40;82.00;;;;;;5031733;28;20494;-72
2022/08/11 01:50:16;;;;;;;0.00;0.00;;;18.40;82.00;;;;;;5030670;28;20414;-72
2022/08/11 01:52:59;;;;;;;0.00;0.00;;;18.40;82.10;;;;;;5042705;28;20056;-72
2022/08/11 01:55:36;;;;;;;0.00;0.00;;;18.40;82.20;;;;;;5032771;28;20045;-72
2022/08/11 01:58:28;;;;;;;0.00;0.00;;;18.30;82.10;;;;;;5032034;28;20053;-72
2022/08/11 02:01:04;;;;;;;0.30;0.30;;;18.30;82.00;;;;;;5031179;28;20098;-72
2022/08/11 02:03:45;;;;;;;0.00;0.00;;;18.30;82.10;;;;;;5032766;28;20049;-72
2022/08/11 02:09:27;;;;;;;0.00;0.00;;;18.30;82.00;;;;;;5011652;28;20049;-72
2022/08/11 02:12:02;;;;;;;0.00;0.00;;;18.30;82.00;;;;;;5003746;28;20068;-72
2022/08/11 02:14:38;;;;;;;0.00;0.00;;;18.30;82.10;;;;;;5051208;28;20037;-72
2022/08/11 02:17:33;;;;;;;0.00;0.00;;;18.30;82.10;;;;;;5050436;28;20041;-72
2022/08/11 02:26:09;;;;;;;0.00;0.00;;;18.20;82.20;;;;;;5051127;28;20123;-72
2022/08/11 02:29:04;;;;;;;0.00;0.00;;;18.30;82.20;;;;;;5034997;28;20045;-72
2022/08/11 02:35:18;;;;;;;0.00;0.00;;;18.20;82.30;;;;;;5014719;28;20049;-72
2022/08/11 02:38:28;;;;;;;0.00;0.00;;;18.20;82.40;;;;;;5043006;28;20068;-72
2022/08/11 02:44:27;;;;;;;0.00;0.00;;;18.10;82.20;;;;;;5047108;28;20049;-72
2022/08/11 02:47:29;;;;;;;0.00;0.00;;;18.10;82.30;;;;;;5050836;28;20405;-72
2022/08/11 02:50:19;;;;;;;0.00;0.00;;;18.10;82.20;;;;;;5011001;28;20124;-72
2022/08/11 02:53:16;;;;;;;0.00;0.00;;;18.10;82.20;;;;;;5023071;28;20056;-72
2022/08/11 02:56:12;;;;;;;0.05;0.05;;;18.00;82.40;;;;;;5046241;28;20041;-72
2022/08/11 03:01:52;;;;;;;0.20;0.20;;;18.00;82.30;;;;;;5030396;28;20049;-72
2022/08/11 03:04:35;;;;;;;0.00;0.00;;;18.00;82.60;;;;;;5047979;28;20045;-72
2022/08/11 03:07:20;;;;;;;0.00;0.00;;;18.00;82.40;;;;;;5032582;28;20525;-72
2022/08/11 03:10:22;;;;;;;0.00;0.00;;;18.00;82.40;;;;;;5048997;28;20041;-72
2022/08/11 03:19:35;;;;;;;0.03;0.03;;;17.90;82.90;;;;;;5035314;28;20049;-72
2022/08/11 03:22:23;;;;;;;0.00;0.00;;;17.90;82.60;;;;;;5030185;28;20041;-72
2022/08/11 03:24:59;;;;;;;0.15;0.15;;;17.80;82.70;;;;;;5049292;28;20049;-72
2022/08/11 03:27:24;;;;;;;0.00;0.00;;;17.70;82.80;;;;;;5049355;28;20060;-72
2022/08/11 03:30:13;;;;;;;0.00;0.00;;;17.80;82.70;;;;;;5048705;28;20053;-72
2022/08/11 03:36:07;;;;;;;0.00;0.00;;;17.80;83.50;;;;;;5022537;28;20414;-72
2022/08/11 03:38:59;;;;;;;0.05;0.05;;;17.80;83.40;;;;;;5029597;28;20044;-72
2022/08/11 03:41:48;;;;;;;0.00;0.00;;;17.80;83.50;;;;;;5049717;28;20045;-72
2022/08/11 03:44:51;;;;;;;0.00;0.00;;;17.70;83.30;;;;;;5020547;28;20110;-72
2022/08/11 03:47:30;;;;;;;0.00;0.00;;;17.80;83.10;;;;;;5029203;28;20107;-72
2022/08/11 03:50:05;;;;;;;0.00;0.00;;;17.70;82.90;;;;;;5045660;28;20433;-72
2022/08/11 03:52:48;;;;;;;0.00;0.00;;;17.70;82.90;;;;;;5044644;28;20053;-72
2022/08/11 03:55:21;;;;;;;0.03;0.03;;;17.70;83.00;;;;;;5029353;28;20053;-72
2022/08/11 03:58:35;;;;;;;0.00;0.00;;;17.70;83.10;;;;;;5015377;28;20048;-72
2022/08/11 04:01:20;;;;;;;0.00;0.00;;;17.70;83.30;;;;;;5009527;28;20129;-72
2022/08/11 04:04:19;;;;;;;0.00;0.00;;;17.70;83.40;;;;;;5017136;28;20049;-72
2022/08/11 04:07:03;;;;;;;0.00;0.00;;;17.70;83.40;;;;;;5049442;28;20079;-72
2022/08/11 04:09:34;;;;;;;0.03;0.03;;;17.70;83.40;;;;;;5031533;28;20088;-72
2022/08/11 04:12:03;;;;;;;;;;;17.70;83.50;;;;;;5029567;28;20115;-72
2022/08/11 04:18:11;;;;;;;0.00;0.00;;;17.60;83.30;;;;;;5047944;28;20545;-72
2022/08/11 04:20:42;;;;;;;0.00;0.00;;;17.60;83.40;;;;;;5031496;28;20483;-72
2022/08/11 04:23:27;;;;;;;0.28;0.28;;;17.60;83.30;;;;;;5040213;28;20045;-72
2022/08/11 04:26:04;;;;;;;0.00;0.00;;;17.50;83.50;;;;;;5029916;28;20057;-72
2022/08/11 04:28:53;;;;;;;0.00;0.00;;;17.50;83.70;;;;;;5028777;28;20486;-72
2022/08/11 04:31:37;;;;;;;0.05;0.05;;;17.50;83.50;;;;;;5026399;28;20046;-72
2022/08/11 04:34:48;;;;;;;0.00;0.00;;;17.50;83.60;;;;;;5030592;28;20081;-72
2022/08/11 04:37:33;;;;;;;0.00;0.00;;;17.50;83.70;;;;;;5001909;28;20148;-72
2022/08/11 04:40:09;;;;;;;0.20;0.20;;;17.50;83.90;;;;;;5040098;28;20038;-72
2022/08/11 04:45:47;;;;;;;0.00;0.00;;;17.40;84.10;;;;;;5022984;28;20053;-72
2022/08/11 05:03:01;;;;;;;;;;;17.60;84.80;;;;;;5033314;28;20053;-72
2022/08/11 05:05:43;;;;;;;0.05;0.05;;;17.60;84.70;;;;;;5038796;28;19921;-72
2022/08/11 05:08:30;;;;;;;0.00;0.00;;;17.70;84.70;;;;;;5017500;28;20410;-72
2022/08/11 05:11:23;;;;;;;0.00;0.00;;;17.70;84.70;;;;;;5032938;28;20495;-72
2022/08/11 05:36:44;;;;;;;0.00;0.00;;;18.00;84.80;;;;;;5041958;28;20049;-72
2022/08/11 05:56:55;;;;;;;0.00;0.00;;;18.40;84.80;;;;;;5031552;28;20143;-73
2022/08/11 05:59:23;;;;;;;0.10;0.10;;;18.40;84.70;;;;;;5031731;28;20081;-72
2022/08/11 06:01:50;;;;;;;0.20;0.20;;;18.50;84.60;;;;;;5031455;28;20044;-73
2022/08/11 06:04:22;;;;;;;0.00;0.00;;;18.50;84.50;;;;;;5031357;28;20045;-73
2022/08/11 06:07:05;;;;;;;0.00;0.00;;;18.60;84.60;;;;;;5013846;28;20057;-73
2022/08/11 06:09:35;;;;;;;0.00;0.00;;;18.60;84.40;;;;;;5031229;28;20072;-73
2022/08/11 06:12:07;;;;;;;0.88;0.57;;;18.60;84.50;;;;;;5031251;28;20706;-72
2022/08/11 06:14:34;;;;;;;0.00;0.00;;;18.70;84.40;;;;;;5035915;28;20053;-73
2022/08/11 06:17:05;;;;;;;0.20;0.20;;;18.80;84.20;;;;;;5031287;28;20060;-72
2022/08/11 06:19:38;;;;;;;0.00;0.00;;;18.80;84.00;;;;;;5030968;28;20068;-72
2022/08/11 06:22:07;;;;;;;0.00;0.00;;;18.80;84.00;;;;;;5031044;28;20045;-73
2022/08/11 06:24:35;;;;;;;0.00;0.00;;;18.90;84.00;;;;;;5031329;28;20399;-73
2022/08/11 06:27:02;;;;;;;0.00;0.00;;;18.90;84.10;;;;;;5013427;28;20041;-72
2022/08/11 06:29:30;;;;;;;0.00;0.00;;;19.00;84.00;;;;;;5031174;28;20445;-71
2022/08/11 06:31:59;;;;;;;0.00;0.00;;;19.00;84.00;;;;;;5030982;28;20046;-71
2022/08/11 06:34:43;;;;;;;0.00;0.00;;;19.10;84.30;;;;;;5030877;28;20613;-69
2022/08/11 06:37:23;;;;;;;0.00;0.00;;;19.10;83.90;;;;;;5013402;28;20392;-68
2022/08/11 06:40:06;;;;;;;0.00;0.00;;;19.10;83.60;;;;;;5030842;28;20045;-69
2022/08/11 06:42:37;;;;;;;0.00;0.00;;;19.20;83.60;;;;;;5031605;28;20103;-71
2022/08/11 06:45:07;;;;;;;;;;;19.20;83.60;;;;;;5031114;28;20077;-70
2022/08/11 06:47:34;;;;;;;0.00;0.00;;;19.30;83.50;;;;;;5017311;28;20317;-69
2022/08/11 06:52:46;;;;;;;0.00;0.00;;;19.40;83.20;;;;;;5030319;28;20089;-70
2022/08/11 07:01:09;;;;;;;0.00;0.00;;;19.60;82.70;;;;;;5010485;28;20054;-69
2022/08/11 07:03:39;;;;;;;0.00;0.00;;;19.60;82.60;;;;;;5025373;28;20033;-68
2022/08/11 07:06:23;;;;;;;0.15;0.15;;;19.70;82.20;;;;;;5050401;28;20124;-68
2022/08/11 07:28:54;;;;;;;0.00;0.00;;;19.90;81.80;;;;;;5050124;28;20569;-68
2022/08/11 07:29:16;;;;;;;0.68;0.45;;;20.20;81.20;;;;;;5029627;28;20049;-68
2022/08/11 07:31:50;;;;;;;0.00;0.00;;;20.30;81.20;;;;;;5030132;28;20037;-68
2022/08/11 07:34:24;;;;;;;0.00;0.00;;;20.40;81.10;;;;;;5029971;28;20045;-68
2022/08/11 07:36:57;;;;;;;0.00;0.00;;;20.40;81.00;;;;;;5030034;28;20041;-68
2022/08/11 07:39:30;;;;;;;0.00;0.00;;;20.50;80.80;;;;;;5029909;28;20048;-68
2022/08/11 07:41:57;;;;;;;0.00;0.00;;;20.60;80.40;;;;;;5034648;28;20048;-68
2022/08/11 07:44:27;;;;;;;0.00;0.00;;;20.60;80.20;;;;;;5049218;28;20051;-68
2022/08/11 07:52:32;;;;;;;0.00;0.00;;;20.90;79.40;;;;;;5023788;28;20054;-68
2022/08/11 07:55:16;;;;;;;0.00;0.00;;;21.00;79.20;;;;;;5022783;28;20742;-67
2022/08/11 08:20:11;;;;;;;0.00;0.00;;;21.60;78.30;;;;;;5036587;28;20528;-68
2022/08/11 08:22:37;;;;;;;0.00;0.00;;;21.70;78.20;;;;;;5029070;28;20050;-68
2022/08/11 08:25:04;;;;;;;0.10;0.10;;;21.80;78.10;;;;;;5029368;28;20056;-68
2022/08/11 08:27:31;;;;;;;0.00;0.00;;;21.90;77.90;;;;;;5014060;28;20050;-68
2022/08/11 08:32:42;;;;;;;0.00;0.00;;;22.00;77.50;;;;;;5023145;28;20053;-68
2022/08/11 08:35:10;;;;;;;0.00;0.00;;;22.10;77.40;;;;;;5027422;28;20446;-70
2022/08/11 08:37:36;;;;;;;0.00;0.00;;;22.20;77.10;;;;;;5032781;28;20033;-71
2022/08/11 08:40:04;;;;;;;0.00;0.00;;;22.20;76.20;;;;;;5034852;28;20085;-69
2022/08/11 08:42:34;;;;;;;0.00;0.00;;;22.30;74.90;;;;;;5034226;28;20053;-67
2022/08/11 08:45:09;;;;;;;0.00;0.00;;;22.40;75.40;;;;;;5051115;28;20049;-67
2022/08/11 08:47:44;;;;;;;0.15;0.15;;;22.50;75.40;;;;;;5032769;28;20072;-67
2022/08/11 08:50:18;;;;;;;0.00;0.00;;;22.60;75.20;;;;;;5033132;28;20038;-68
2022/08/11 08:52:52;;;;;;;0.00;0.00;;;22.60;74.40;;;;;;5013282;28;20413;-67
2022/08/11 08:55:19;;;;;;;0.00;0.00;;;22.80;74.30;;;;;;5051008;28;20518;-67
2022/08/11 08:57:49;;;;;;;0.00;0.00;;;22.80;74.40;;;;;;5032802;28;20045;-68
2022/08/11 09:00:16;;;;;;;0.00;0.00;;;22.90;74.30;;;;;;5032966;28;20123;-68
2022/08/11 09:02:43;;;;;;;0.00;0.00;;;23.00;73.70;;;;;;5052150;28;20041;-68
2022/08/11 09:05:09;;;;;;;0.00;0.00;;;23.10;74.00;;;;;;5051474;28;20052;-67
2022/08/11 09:07:36;;;;;;;0.10;0.10;;;23.10;73.80;;;;;;5048832;28;20410;-68
2022/08/11 09:10:03;;;;;;;0.10;0.10;;;23.20;73.70;;;;;;5033828;28;20049;-68
2022/08/11 09:12:31;;;;;;;0.00;0.00;;;23.30;73.70;;;;;;5031677;28;20235;-67
2022/08/11 09:15:03;;;;;;;0.00;0.00;;;23.40;72.30;;;;;;5037750;28;20421;-67
2022/08/11 09:17:48;;;;;;;0.00;0.00;;;23.50;72.90;;;;;;5040057;28;20478;-66
2022/08/11 09:20:24;;;;;;;0.00;0.00;;;23.50;72.70;;;;;;5022650;28;20037;-67
2022/08/11 09:28:28;;;;;;;0.00;0.00;;;23.80;69.80;;;;;;5032072;28;20054;-67
2022/08/11 09:30:54;;;;;;;0.00;0.00;;;23.90;69.90;;;;;;5031559;28;20041;-66
2022/08/11 09:33:22;;;;;;;0.00;0.00;;;24.00;69.60;;;;;;5030944;28;20124;-67
2022/08/11 09:35:50;;;;;;;0.00;0.00;;;24.00;70.00;;;;;;5024034;28;20041;-66
2022/08/11 09:41:05;;;;;;;0.00;0.00;;;24.20;69.60;;;;;;5015502;28;20057;-67
2022/08/11 09:46:25;;;;;;;0.00;0.00;;;24.40;69.00;;;;;;5031146;28;20053;-66
2022/08/11 09:48:53;;;;;;;0.00;0.00;;;24.40;68.70;;;;;;5029483;28;20049;-66
2022/08/11 09:51:21;;;;;;;0.00;0.00;;;24.50;67.80;;;;;;5031219;28;20049;-66
2022/08/11 09:53:48;;;;;;;1.45;0.65;;;24.60;68.00;;;;;;5031225;28;20077;-66
2022/08/11 09:59:19;;;;;;;0.00;0.00;;;24.70;67.20;;;;;;5086742;28;20048;-65
2022/08/11 10:01:48;;;;;;;0.00;0.00;;;24.90;67.40;;;;;;5086055;28;20048;-65
2022/08/11 10:04:29;;;;;;;0.00;0.00;;;24.90;67.30;;;;;;5086598;28;20040;-64
2022/08/11 10:07:01;;;;;;;0.73;0.32;;;25.00;66.30;;;;;;5086042;28;20113;-65
2022/08/11 10:09:49;;;;;;;0.05;0.05;;;25.10;65.70;;;;;;5085083;28;20504;-64
2022/08/11 10:12:34;;;;;;;0.00;0.00;;;25.10;63.80;;;;;;5086443;28;20095;-64
2022/08/11 10:15:33;;;;;;;0.00;0.00;;;25.30;63.80;;;;;;5086342;28;20040;-64
2022/08/11 10:21:07;;;;;;;0.00;0.00;;;25.50;62.60;;;;;;5075924;28;20048;-64
2022/08/11 10:33:59;;;;;;;0.00;0.00;;;25.70;57.80;;;;;;5075222;28;20057;-65
2022/08/11 10:34:39;;;;;;;0.00;0.00;;;25.90;61.00;;;;;;5065927;28;20057;-64
2022/08/11 10:37:06;;;;;;;0.00;0.00;;;26.00;61.30;;;;;;5075438;28;20394;-64
2022/08/11 10:39:33;;;;;;;0.00;0.00;;;26.00;61.30;;;;;;5085732;28;20083;-64
2022/08/11 10:44:46;;;;;;;0.00;0.00;;;26.10;60.60;;;;;;5085721;28;20127;-65
2022/08/11 11:01:02;;;;;;;0.00;0.00;;;26.50;55.00;;;;;;5068363;28;20048;-64
2022/08/11 11:03:30;;;;;;;0.00;0.00;;;26.60;58.30;;;;;;5075404;28;20452;-64
2022/08/11 11:06:26;;;;;;;0.00;0.00;;;26.70;56.80;;;;;;5062536;28;20073;-64
2022/08/11 11:09:11;;;;;;;0.00;0.00;;;26.70;56.20;;;;;;5051835;28;20093;-64
2022/08/11 11:19:57;;;;;;;0.00;0.00;;;27.00;53.60;;;;;;5055231;28;20110;-64
2022/08/11 11:22:39;;;;;;;0.00;0.00;;;27.00;54.70;;;;;;5070373;28;20115;-64
2022/08/11 11:25:28;;;;;;;0.00;0.00;;;27.20;54.70;;;;;;5071582;28;20057;-64
2022/08/11 11:28:14;;;;;;;0.00;0.00;;;27.20;54.60;;;;;;5070294;28;20500;-67
2022/08/11 11:31:12;;;;;;;0.00;0.00;;;27.30;54.40;;;;;;5071742;28;20049;-67
2022/08/11 11:33:56;;;;;;;0.10;0.10;;;27.30;54.60;;;;;;5047093;28;20044;-67
2022/08/11 11:36:50;;;;;;;0.00;0.00;;;27.50;54.20;;;;;;5053701;28;20052;-68
2022/08/11 11:39:20;;;;;;;0.00;0.00;;;27.50;53.70;;;;;;5056685;28;20448;-65
2022/08/11 11:41:47;;;;;;;0.00;0.00;;;27.50;53.50;;;;;;5051374;28;20456;-66
2022/08/11 11:44:14;;;;;;;0.00;0.00;;;27.60;49.60;;;;;;5063883;28;20040;-66
2022/08/11 11:46:41;;;;;;;0.00;0.00;;;27.80;51.30;;;;;;5071944;28;20056;-66
2022/08/11 11:49:08;;;;;;;0.03;0.03;;;27.90;52.60;;;;;;5070224;28;20454;-66
2022/08/11 11:51:36;;;;;;;0.00;0.00;;;28.00;49.50;;;;;;5062377;28;20568;-66
2022/08/11 11:54:03;;;;;;;0.00;0.00;;;28.00;52.70;;;;;;5056412;28;20558;-66
2022/08/11 11:56:30;;;;;;;0.00;0.00;;;28.10;52.70;;;;;;5062706;28;20114;-66
2022/08/11 12:01:42;;;;;;;0.00;0.00;;;28.30;51.80;;;;;;5061960;28;20048;-67
2022/08/11 12:04:10;;;;;;;0.00;0.00;;;28.30;51.80;;;;;;5057849;28;20524;-67
2022/08/11 12:06:36;;;;;;;1.73;0.52;;;28.30;52.00;;;;;;5059525;28;20052;-67
2022/08/11 12:09:03;;;;;;;0.00;0.00;;;28.40;50.00;;;;;;5058797;28;20922;-66
2022/08/11 12:14:19;;;;;;;0.00;0.00;;;28.50;49.80;;;;;;5053460;28;20041;-66
2022/08/11 12:16:46;;;;;;;27.33;1.13;;;28.60;46.10;;;;;;5070510;28;20413;-67
2022/08/11 12:19:17;;;;;;;0.05;0.00;;;28.60;49.40;;;;;;5061456;28;20114;-66
2022/08/11 12:27:20;;;;;;;0.00;0.00;;;28.80;48.40;;;;;;5050104;28;20084;-67
2022/08/11 12:29:48;;;;;;;0.00;0.00;;;28.80;47.30;;;;;;5059317;28;20044;-68
2022/08/11 12:32:14;;;;;;;0.00;0.00;;;28.80;47.10;;;;;;5066911;28;20120;-67
2022/08/11 12:34:39;;;;;;;0.00;0.00;;;29.00;48.80;;;;;;5058453;28;20075;-67
2022/08/11 12:37:09;;;;;;;0.00;0.00;;;29.00;45.90;;;;;;5060582;28;20081;-67
2022/08/11 12:45:27;;;;;;;0.00;0.00;;;29.20;48.50;;;;;;5057461;28;20082;-67
2022/08/11 12:53:58;;;;;;;0.00;0.00;;;29.30;45.20;;;;;;5055875;28;20128;-66
2022/08/11 13:04:57;;;;;;;0.00;0.00;;;29.50;46.30;;;;;;5061629;28;20073;-66
2022/08/11 13:07:28;;;;;;;0.05;0.05;;;29.50;44.60;;;;;;5055566;28;20051;-66
2022/08/11 13:09:56;;;;;;;0.00;0.00;;;29.60;45.40;;;;;;5058618;28;20037;-67
2022/08/11 13:15:18;;;;;;;0.00;0.00;;;29.70;43.70;;;;;;5057017;28;20053;-67
2022/08/11 13:17:47;;;;;;;0.00;0.00;;;29.80;42.80;;;;;;5056807;28;20371;-66
2022/08/11 13:20:18;;;;;;;0.00;0.00;;;29.90;42.90;;;;;;5055065;28;20083;-66
2022/08/11 13:22:48;;;;;;;0.80;0.80;;;29.90;43.20;;;;;;5057414;28;20120;-66
2022/08/11 13:25:16;;;;;;;0.08;0.08;;;29.90;42.00;;;;;;5062632;28;20040;-67
2022/08/11 13:27:45;;;;;;;0.00;0.00;;;29.90;41.50;;;;;;5056716;28;20032;-67
2022/08/11 13:32:58;;;;;;;0.00;0.00;;;29.90;41.30;;;;;;5057404;28;20053;-67
2022/08/11 13:35:26;;;;;;;0.15;0.10;;;30.00;42.00;;;;;;5057378;28;20053;-67
2022/08/11 13:37:52;;;;;;;0.00;0.00;;;30.10;42.30;;;;;;5056077;28;20065;-66
2022/08/11 13:40:20;;;;;;;0.00;0.00;;;30.10;40.70;;;;;;5057997;28;20057;-66
2022/08/11 13:42:46;;;;;;;0.00;0.00;;;30.20;41.90;;;;;;5060998;28;20250;-66
2022/08/11 13:45:13;;;;;;;0.15;0.15;;;30.30;40.50;;;;;;5062243;28;20079;-67
2022/08/11 13:47:40;;;;;;;0.00;0.00;;;30.40;41.70;;;;;;5048121;28;20052;-66
2022/08/11 13:50:07;;;;;;;0.00;0.00;;;30.50;41.40;;;;;;5056741;28;20040;-67
2022/08/11 13:52:35;;;;;;;0.00;0.00;;;30.50;39.90;;;;;;5067255;28;20936;-66
2022/08/11 13:55:01;;;;;;;0.00;0.00;;;30.50;39.20;;;;;;5069196;28;20053;-66
2022/08/11 13:57:32;;;;;;;0.00;0.00;;;30.70;39.60;;;;;;5069321;28;20052;-66
2022/08/11 14:00:08;;;;;;;0.05;0.05;;;30.70;39.10;;;;;;5069243;28;20044;-66
2022/08/11 14:02:38;;;;;;;0.00;0.00;;;30.70;37.90;;;;;;5068613;28;20053;-67
2022/08/11 14:05:12;;;;;;;0.10;0.10;;;30.70;36.00;;;;;;5068986;28;20067;-67
2022/08/11 14:07:40;;;;;;;0.00;0.00;;;30.80;37.30;;;;;;5068723;28;20517;-67
2022/08/11 14:10:09;;;;;;;0.00;0.00;;;30.80;37.50;;;;;;5064386;28;20044;-67
2022/08/11 14:15:26;;;;;;;0.32;0.32;;;30.90;39.20;;;;;;5068943;28;20493;-67
2022/08/11 14:18:06;;;;;;;0.00;0.00;;;30.90;39.70;;;;;;5069052;28;20048;-67
2022/08/11 14:23:28;;;;;;;0.03;0.03;;;30.80;40.00;;;;;;5048963;28;20048;-67
2022/08/11 14:28:40;;;;;;;0.00;0.00;;;30.70;40.30;;;;;;5065319;28;20087;-66
2022/08/11 14:31:07;;;;;;;0.00;0.00;;;30.60;39.90;;;;;;5068766;28;20043;-67
2022/08/11 14:33:34;;;;;;;0.22;0.13;;;30.50;40.10;;;;;;5068844;28;20044;-67
2022/08/11 14:36:04;;;;;;;0.00;0.00;;;30.60;40.60;;;;;;5057537;28;20095;-67
2022/08/11 14:38:32;;;;;;;0.00;0.00;;;30.60;40.50;;;;;;5049185;28;20045;-67
2022/08/11 14:49:13;;;;;;;0.10;0.10;;;30.60;39.90;;;;;;5072137;28;20052;-67
2022/08/11 14:51:41;;;;;;;0.85;0.47;;;30.70;40.30;;;;;;5066414;28;20045;-67
2022/08/11 14:56:53;;;;;;;0.00;0.00;;;30.80;40.30;;;;;;5053040;28;20524;-67
2022/08/11 14:59:20;;;;;;;0.20;0.20;;;30.80;39.60;;;;;;5052660;28;20457;-67
2022/08/11 15:04:30;;;;;;;0.57;0.57;;;30.60;39.30;;;;;;5051904;28;20045;-67
2022/08/11 15:06:56;;;;;;;0.00;0.00;;;30.60;39.40;;;;;;5061226;28;20059;-67
2022/08/11 15:09:22;;;;;;;0.10;0.10;;;30.60;39.60;;;;;;5070494;28;20036;-67
2022/08/11 15:17:17;;;;;;;0.00;0.00;;;30.60;39.80;;;;;;5058980;28;20497;-68
2022/08/11 15:24:18;;;;;;;0.10;0.10;;;30.70;39.90;;;;;;5067347;28;20127;-67
2022/08/11 15:25:13;;;;;;;0.00;0.00;;;30.60;39.80;;;;;;5071325;28;20053;-67
2022/08/11 15:38:59;;;;;;;0.00;0.00;;;30.40;41.10;;;;;;5052474;28;20091;-66
2022/08/11 15:47:07;;;;;;;0.00;0.00;;;30.40;41.60;;;;;;5051708;28;20061;-67
2022/08/11 15:49:38;;;;;;;0.00;0.00;;;30.50;41.90;;;;;;5051292;28;20076;-67
2022/08/11 15:52:16;;;;;;;0.00;0.00;;;30.40;41.50;;;;;;5051226;28;20494;-66
2022/08/11 15:54:45;;;;;;;0.00;0.00;;;30.40;41.30;;;;;;5051208;28;20457;-67
2022/08/11 16:04:10;;;;;;;0.00;0.00;;;30.30;41.60;;;;;;5051562;28;20142;-67
2022/08/11 16:05:35;;;;;;;0.85;0.70;;;30.30;41.90;;;;;;5070017;28;20044;-66
2022/08/11 16:08:02;;;;;;;0.00;0.00;;;30.20;42.00;;;;;;5070983;28;20047;-67
2022/08/11 16:10:28;;;;;;;0.00;0.00;;;30.20;42.50;;;;;;5068992;28;20045;-67
2022/08/11 16:18:39;;;;;;;0.20;0.20;;;30.20;42.10;;;;;;5059626;28;20092;-66
2022/08/11 16:21:08;;;;;;;0.20;0.20;;;30.20;42.30;;;;;;5051812;28;20041;-66
2022/08/11 16:23:36;;;;;;;0.00;0.00;;;30.00;42.10;;;;;;5050469;28;20537;-67
2022/08/11 16:26:04;;;;;;;0.17;0.13;;;29.90;42.10;;;;;;5050184;28;20486;-67
2022/08/11 16:28:32;;;;;;;0.00;0.00;;;29.80;41.70;;;;;;5056810;28;20036;-67
2022/08/11 16:30:59;;;;;;;0.00;0.00;;;29.80;42.20;;;;;;5068948;28;20048;-67
2022/08/11 16:33:25;;;;;;;0.10;0.10;;;29.70;42.40;;;;;;5068565;28;20497;-67
2022/08/11 16:38:38;;;;;;;0.00;0.00;;;29.60;42.40;;;;;;5051087;28;20045;-67
2022/08/11 16:46:57;;;;;;;0.03;0.00;;;29.60;42.90;;;;;;5062301;28;20040;-67
2022/08/11 16:46:59;;;;;;;0.00;0.00;;;29.60;42.70;;;;;;5050088;28;20053;-67
2022/08/11 16:49:26;;;;;;;0.00;0.00;;;29.60;42.70;;;;;;5050490;28;20133;-67
2022/08/11 16:51:52;;;;;;;0.00;0.00;;;29.60;42.50;;;;;;5050705;28;20106;-67
2022/08/11 16:54:18;;;;;;;0.00;0.00;;;29.50;42.40;;;;;;5062302;28;20037;-67
2022/08/11 16:56:47;;;;;;;0.00;0.00;;;29.50;42.60;;;;;;5069117;28;20040;-67
2022/08/11 16:59:30;;;;;;;0.00;0.00;;;29.50;42.80;;;;;;5069506;28;20118;-68
2022/08/11 17:02:11;;;;;;;0.00;0.00;;;29.40;43.10;;;;;;5068110;28;20086;-68
2022/08/11 17:13:21;;;;;;;0.05;0.05;;;29.50;43.50;;;;;;5050821;28;20041;-66
2022/08/11 17:16:07;;;;;;;0.00;0.00;;;29.50;43.70;;;;;;5049680;28;20483;-66
2022/08/11 17:18:45;;;;;;;0.00;0.00;;;29.50;43.80;;;;;;5067096;28;20044;-66
2022/08/11 17:21:16;;;;;;;0.00;0.00;;;29.50;43.80;;;;;;5069835;28;20468;-66
2022/08/11 17:23:48;;;;;;;0.00;0.00;;;29.50;43.70;;;;;;5053860;28;20045;-66
2022/08/11 17:26:54;;;;;;;0.00;0.00;;;29.50;43.80;;;;;;5049476;28;20449;-66
2022/08/11 17:29:25;;;;;;;0.00;0.00;;;29.50;43.50;;;;;;5049260;28;20709;-66
2022/08/11 17:37:24;;;;;;;28.85;0.55;;;29.40;43.80;;;;;;5067597;28;20057;-66
2022/08/11 17:39:52;;;;;;;0.00;0.00;;;29.40;44.00;;;;;;5069705;28;20048;-66
2022/08/11 17:50:35;;;;;;;0.03;0.03;;;29.30;44.20;;;;;;5049048;28;20049;-66
2022/08/11 18:01:19;;;;;;;0.00;0.00;;;29.00;44.90;;;;;;5049197;28;20508;-67
2022/08/11 18:03:45;;;;;;;0.00;0.00;;;29.00;45.10;;;;;;5050106;28;20045;-67
2022/08/11 18:06:13;;;;;;;0.00;0.00;;;28.90;45.10;;;;;;5056095;28;20040;-67
